Time;durP1;ratioP1;P1;durP2;ratioP2;P2;SDS_P1;SDS_P2;PMS_P1;PMS_P2;Temp;Humidity;BMP_temperature;BMP_pressure;BME280_temperature;BME280_humidity;BME280_pressure;Samples;Min_cycle;Max_cycle;Signal;HPM_P1;HPM_P2
2023/03/12 00:00:30;;;;;;;0.25;0.15;;;0.90;99.90;;;;;;5116837;27;20113;-83
2023/03/12 00:02:55;;;;;;;0.10;0.10;;;0.90;99.90;;;;;;5116593;27;20082;-83
2023/03/12 00:05:21;;;;;;;0.00;0.00;;;1.00;99.90;;;;;;5116447;27;20054;-83
2023/03/12 00:07:48;;;;;;;0.15;0.10;;;1.10;99.90;;;;;;5116811;27;20047;-83
2023/03/12 00:10:13;;;;;;;0.00;0.00;;;1.00;99.90;;;;;;5099942;27;20043;-83
2023/03/12 00:12:39;;;;;;;0.10;0.00;;;1.00;99.90;;;;;;5116816;27;20047;-83
2023/03/12 00:15:06;;;;;;;2.28;0.47;;;1.00;99.90;;;;;;5134042;27;20050;-83
2023/03/12 00:17:32;;;;;;;0.10;0.10;;;1.00;99.90;;;;;;5116677;27;20050;-83
2023/03/12 00:19:57;;;;;;;0.00;0.00;;;1.00;99.90;;;;;;5099438;28;20380;-83
2023/03/12 00:22:24;;;;;;;0.00;0.00;;;0.90;99.90;;;;;;5116813;28;20046;-83
2023/03/12 00:24:54;;;;;;;0.00;0.00;;;1.00;99.90;;;;;;5116310;28;20057;-83
2023/03/12 00:27:21;;;;;;;0.00;0.00;;;1.00;99.90;;;;;;5133828;28;20133;-83
2023/03/12 00:29:46;;;;;;;0.57;0.57;;;1.00;99.90;;;;;;5133773;28;20146;-83
2023/03/12 00:32:12;;;;;;;0.00;0.00;;;1.00;99.90;;;;;;5134285;27;20523;-83
2023/03/12 00:34:38;;;;;;;0.45;0.45;;;1.00;99.90;;;;;;5120527;27;20448;-83
2023/03/12 00:37:03;;;;;;;0.13;0.13;;;0.90;99.90;;;;;;5137943;27;20039;-83
2023/03/12 00:39:29;;;;;;;0.10;0.10;;;1.00;99.90;;;;;;5120995;27;20043;-83
2023/03/12 00:41:55;;;;;;;0.00;0.00;;;1.10;99.90;;;;;;5137823;27;20091;-83
2023/03/12 00:44:20;;;;;;;0.00;0.00;;;1.10;99.90;;;;;;5120725;27;20043;-83
2023/03/12 00:46:46;;;;;;;0.35;0.10;;;1.10;99.90;;;;;;5120681;27;20043;-83
2023/03/12 00:49:12;;;;;;;0.00;0.00;;;1.20;99.90;;;;;;5120525;27;20042;-83
2023/03/12 00:51:37;;;;;;;0.00;0.00;;;1.20;99.90;;;;;;5103742;27;20047;-83
2023/03/12 00:54:04;;;;;;;0.10;0.10;;;1.10;99.90;;;;;;5120022;27;20054;-84
2023/03/12 00:56:30;;;;;;;0.00;0.00;;;1.20;99.90;;;;;;5137520;27;20078;-83
2023/03/12 00:58:56;;;;;;;0.00;0.00;;;1.20;99.90;;;;;;5136882;27;20090;-83
2023/03/12 01:01:22;;;;;;;0.70;0.47;;;1.20;99.90;;;;;;5137535;27;20113;-83
2023/03/12 01:03:50;;;;;;;0.00;0.00;;;1.20;99.90;;;;;;5103657;27;20387;-83
2023/03/12 01:06:17;;;;;;;0.00;0.00;;;1.20;99.90;;;;;;5137404;27;20054;-83
2023/03/12 01:08:42;;;;;;;0.05;0.00;;;1.10;99.90;;;;;;5137600;27;20043;-83
2023/03/12 01:11:16;;;;;;;0.30;0.20;;;1.20;99.90;;;;;;5120163;27;20479;-83
2023/03/12 01:13:42;;;;;;;0.00;0.00;;;1.20;99.90;;;;;;5137035;27;20035;-83
2023/03/12 01:16:08;;;;;;;0.08;0.08;;;1.10;99.90;;;;;;5137165;27;20042;-83
2023/03/12 01:18:34;;;;;;;0.00;0.00;;;1.20;99.90;;;;;;5137788;27;20039;-83
2023/03/12 01:21:00;;;;;;;0.90;0.47;;;1.30;99.90;;;;;;5086086;27;20055;-83
2023/03/12 01:23:25;;;;;;;0.20;0.05;;;1.20;99.90;;;;;;5136601;27;20082;-84
2023/03/12 01:25:54;;;;;;;0.00;0.00;;;1.20;99.90;;;;;;5119948;27;20047;-83
2023/03/12 01:28:23;;;;;;;0.05;0.05;;;1.20;99.90;;;;;;5103583;27;20050;-83
2023/03/12 01:30:49;;;;;;;0.05;0.00;;;1.20;99.90;;;;;;5136554;27;20554;-83
2023/03/12 01:33:15;;;;;;;0.00;0.00;;;1.20;99.90;;;;;;5119591;27;20126;-82
2023/03/12 01:35:42;;;;;;;0.00;0.00;;;1.20;99.90;;;;;;5119343;27;20047;-83
2023/03/12 01:38:12;;;;;;;0.00;0.00;;;1.20;99.90;;;;;;5136571;27;20047;-83
2023/03/12 01:40:39;;;;;;;0.00;0.00;;;1.30;99.90;;;;;;5137685;27;20039;-83
2023/03/12 01:43:29;;;;;;;0.00;0.00;;;1.30;99.90;;;;;;5136860;27;20059;-83
2023/03/12 01:46:29;;;;;;;0.00;0.00;;;1.30;99.90;;;;;;5136631;27;20514;-83
2023/03/12 01:49:09;;;;;;;0.00;0.00;;;1.40;99.90;;;;;;5136831;27;20039;-83
2023/03/12 01:52:04;;;;;;;0.00;0.00;;;1.40;99.90;;;;;;5136473;27;20051;-82
2023/03/12 01:54:42;;;;;;;0.00;0.00;;;1.40;99.90;;;;;;5110278;27;20059;-83
2023/03/12 01:57:13;;;;;;;0.00;0.00;;;1.40;99.90;;;;;;5136555;27;20046;-83
2023/03/12 01:59:51;;;;;;;0.00;0.00;;;1.50;99.90;;;;;;5119450;27;20394;-83
2023/03/12 02:02:22;;;;;;;0.00;0.00;;;1.50;99.90;;;;;;5119142;27;20104;-83
2023/03/12 02:04:51;;;;;;;0.00;0.00;;;1.50;99.90;;;;;;5119848;27;20135;-83
2023/03/12 02:07:17;;;;;;;0.00;0.00;;;1.50;99.90;;;;;;5119039;27;20043;-83
2023/03/12 02:09:47;;;;;;;0.10;0.00;;;1.50;99.90;;;;;;5135733;27;20608;-83
2023/03/12 02:12:14;;;;;;;0.00;0.00;;;1.40;99.90;;;;;;5137360;27;20129;-84
2023/03/12 02:14:40;;;;;;;0.00;0.00;;;1.40;99.90;;;;;;5118529;27;20410;-83
2023/03/12 02:17:07;;;;;;;1.08;0.45;;;1.40;99.90;;;;;;5135969;27;20046;-83
2023/03/12 02:20:10;;;;;;;0.00;0.00;;;1.40;99.90;;;;;;5136007;27;20053;-83
2023/03/12 02:22:39;;;;;;;0.00;0.00;;;1.40;99.90;;;;;;5118832;27;20047;-83
2023/03/12 02:25:26;;;;;;;0.00;0.00;;;1.50;99.90;;;;;;5135504;27;20132;-83
2023/03/12 02:27:53;;;;;;;0.00;0.00;;;1.50;99.90;;;;;;5118797;27;20047;-83
2023/03/12 02:30:19;;;;;;;0.00;0.00;;;1.50;99.90;;;;;;5135840;27;20352;-83
2023/03/12 02:32:47;;;;;;;0.00;0.00;;;1.50;99.90;;;;;;5118662;27;20052;-83
2023/03/12 02:35:15;;;;;;;0.00;0.00;;;1.50;99.90;;;;;;5118859;27;20043;-83
2023/03/12 02:37:53;;;;;;;0.68;0.10;;;1.50;99.90;;;;;;5135544;27;20051;-83
2023/03/12 02:40:37;;;;;;;0.00;0.00;;;1.40;99.90;;;;;;5135833;27;20047;-83
2023/03/12 02:43:06;;;;;;;0.00;0.00;;;1.40;99.90;;;;;;5118783;27;20043;-83
2023/03/12 02:45:34;;;;;;;0.00;0.00;;;1.40;99.90;;;;;;5118399;27;20054;-83
2023/03/12 02:48:01;;;;;;;0.00;0.00;;;1.50;99.90;;;;;;5118643;27;20134;-83
2023/03/12 02:50:26;;;;;;;0.00;0.00;;;1.40;99.90;;;;;;5135142;27;20135;-83
2023/03/12 02:52:52;;;;;;;0.00;0.00;;;1.40;99.90;;;;;;5117698;27;20125;-84
2023/03/12 02:55:18;;;;;;;0.20;0.20;;;1.40;99.90;;;;;;5117542;27;20051;-83
2023/03/12 02:57:44;;;;;;;0.00;0.00;;;1.40;99.90;;;;;;5118039;27;20058;-83
2023/03/12 03:00:11;;;;;;;0.00;0.00;;;1.40;99.90;;;;;;5135481;27;20436;-83
2023/03/12 03:02:38;;;;;;;1.85;0.95;;;1.40;99.90;;;;;;5135053;27;20418;-83
2023/03/12 03:05:04;;;;;;;0.00;0.00;;;1.50;99.90;;;;;;5117959;27;20111;-82
2023/03/12 03:07:30;;;;;;;0.00;0.00;;;1.50;99.90;;;;;;5118012;27;20129;-83
2023/03/12 03:09:56;;;;;;;0.00;0.00;;;1.50;99.90;;;;;;5134910;27;20435;-83
2023/03/12 03:12:21;;;;;;;0.22;0.05;;;1.50;99.90;;;;;;5117939;27;20046;-83
2023/03/12 03:14:47;;;;;;;0.00;0.00;;;1.50;99.90;;;;;;5117486;27;20498;-83
2023/03/12 03:17:13;;;;;;;0.08;0.08;;;1.50;99.90;;;;;;5117825;27;20051;-83
2023/03/12 03:19:39;;;;;;;0.00;0.00;;;1.60;99.90;;;;;;5134693;27;20035;-83
2023/03/12 03:22:05;;;;;;;0.03;0.03;;;1.50;99.90;;;;;;5117370;27;20043;-83
2023/03/12 03:24:31;;;;;;;0.10;0.10;;;1.50;99.90;;;;;;5117118;27;20090;-83
2023/03/12 03:26:56;;;;;;;5.07;0.25;;;1.50;99.90;;;;;;5117539;27;20502;-83
2023/03/12 03:29:22;;;;;;;0.00;0.00;;;1.40;99.90;;;;;;5134553;27;20119;-83
2023/03/12 03:31:48;;;;;;;0.00;0.00;;;1.50;99.90;;;;;;5134490;27;20043;-83
2023/03/12 03:34:13;;;;;;;0.00;0.00;;;1.50;99.90;;;;;;5100635;27;20047;-83
2023/03/12 03:36:39;;;;;;;0.25;0.25;;;1.40;99.90;;;;;;5117417;27;20391;-83
2023/03/12 03:39:05;;;;;;;0.10;0.10;;;1.40;99.90;;;;;;5117247;27;20047;-83
2023/03/12 03:41:31;;;;;;;0.00;0.00;;;1.50;99.90;;;;;;5134370;27;20043;-83
2023/03/12 03:43:58;;;;;;;0.00;0.00;;;1.50;99.90;;;;;;5134314;27;20066;-83
2023/03/12 03:46:24;;;;;;;0.00;0.00;;;1.50;99.90;;;;;;5134231;27;20391;-83
2023/03/12 03:48:50;;;;;;;0.00;0.00;;;1.50;99.90;;;;;;5134367;27;20476;-83
2023/03/12 03:51:16;;;;;;;0.15;0.15;;;1.50;99.90;;;;;;5117135;27;20079;-83
2023/03/12 03:53:41;;;;;;;0.00;0.00;;;1.60;99.90;;;;;;5133480;27;20070;-83
2023/03/12 03:56:13;;;;;;;0.00;0.00;;;1.60;99.90;;;;;;5116677;27;20396;-82
2023/03/12 03:58:39;;;;;;;0.00;0.00;;;1.60;99.90;;;;;;5134039;27;20054;-82
2023/03/12 04:01:05;;;;;;;0.10;0.00;;;1.60;99.90;;;;;;5099971;27;20440;-83
2023/03/12 04:03:32;;;;;;;0.00;0.00;;;1.60;99.90;;;;;;5116836;27;20085;-83
2023/03/12 04:05:59;;;;;;;0.85;0.30;;;1.80;99.90;;;;;;5133878;27;20097;-83
2023/03/12 04:08:26;;;;;;;1.13;0.63;;;1.60;99.90;;;;;;5133523;27;20058;-83
2023/03/12 04:10:52;;;;;;;0.30;0.30;;;1.60;99.90;;;;;;5116712;27;20051;-83
2023/03/12 04:13:18;;;;;;;0.10;0.10;;;1.60;99.90;;;;;;5116631;27;20046;-82
2023/03/12 04:15:49;;;;;;;0.00;0.00;;;1.60;99.90;;;;;;5116542;27;20096;-82
2023/03/12 04:18:16;;;;;;;0.00;0.00;;;1.60;99.90;;;;;;5134108;27;20043;-82
2023/03/12 04:20:42;;;;;;;0.00;0.00;;;1.60;99.90;;;;;;5133765;27;20093;-83
2023/03/12 04:23:07;;;;;;;0.03;0.00;;;1.70;99.90;;;;;;5133448;27;20518;-83
2023/03/12 04:25:33;;;;;;;0.17;0.17;;;1.60;99.90;;;;;;5133827;27;20055;-83
2023/03/12 04:28:00;;;;;;;0.25;0.10;;;1.70;99.90;;;;;;5116710;28;20491;-83
2023/03/12 04:30:26;;;;;;;0.00;0.00;;;1.70;99.90;;;;;;5117179;28;20051;-83
2023/03/12 04:32:52;;;;;;;0.52;0.32;;;1.70;99.90;;;;;;5116437;28;20050;-83
2023/03/12 04:35:18;;;;;;;0.08;0.08;;;1.70;99.90;;;;;;5100145;28;20087;-83
2023/03/12 04:37:44;;;;;;;0.00;0.00;;;1.70;99.90;;;;;;5133642;28;20499;-83
2023/03/12 04:40:10;;;;;;;0.00;0.00;;;1.70;99.90;;;;;;5133579;28;20035;-83
2023/03/12 04:42:36;;;;;;;0.00;0.00;;;1.80;99.90;;;;;;5133601;28;20051;-83
2023/03/12 04:45:06;;;;;;;0.98;0.90;;;1.80;99.90;;;;;;5116480;28;20431;-83
2023/03/12 04:47:32;;;;;;;0.10;0.10;;;1.80;99.90;;;;;;5133496;28;20146;-82
2023/03/12 04:49:59;;;;;;;15.77;0.98;;;1.80;99.90;;;;;;5099690;28;20054;-82
2023/03/12 04:52:25;;;;;;;0.00;0.00;;;1.70;99.90;;;;;;5116251;28;20051;-83
2023/03/12 04:54:52;;;;;;;0.00;0.00;;;1.80;99.90;;;;;;5132718;28;20518;-83
2023/03/12 04:57:18;;;;;;;1.65;0.10;;;1.80;99.90;;;;;;5134330;27;20047;-83
2023/03/12 04:59:44;;;;;;;0.00;0.00;;;1.70;99.90;;;;;;5119978;27;20100;-83
2023/03/12 05:02:10;;;;;;;0.00;0.00;;;1.80;99.90;;;;;;5119784;27;20051;-83
2023/03/12 05:04:35;;;;;;;0.17;0.17;;;1.80;99.90;;;;;;5119769;27;20082;-83
2023/03/12 05:07:01;;;;;;;0.40;0.20;;;1.70;99.90;;;;;;5119679;27;20035;-83
2023/03/12 05:09:27;;;;;;;0.00;0.00;;;1.80;99.90;;;;;;5119682;27;20206;-83
2023/03/12 05:11:52;;;;;;;0.28;0.15;;;1.80;99.90;;;;;;5137074;27;20051;-83
2023/03/12 05:14:18;;;;;;;0.10;0.10;;;1.70;99.90;;;;;;5119596;27;20367;-83
2023/03/12 05:16:44;;;;;;;0.63;0.20;;;1.70;99.90;;;;;;5136676;27;20133;-82
2023/03/12 05:19:10;;;;;;;3.15;0.85;;;1.70;99.90;;;;;;5156799;27;20126;-83
2023/03/12 05:21:36;;;;;;;0.30;0.30;;;1.70;99.90;;;;;;5140782;27;20046;-82
2023/03/12 05:24:02;;;;;;;0.00;0.00;;;1.70;99.90;;;;;;5122962;27;20042;-82
2023/03/12 05:26:30;;;;;;;0.20;0.10;;;1.60;99.90;;;;;;5140671;27;20055;-83
2023/03/12 05:28:57;;;;;;;0.10;0.00;;;1.60;99.90;;;;;;5123302;27;20053;-83
2023/03/12 05:31:22;;;;;;;2.28;0.90;;;1.60;99.90;;;;;;5123317;27;20463;-83
2023/03/12 05:33:49;;;;;;;0.25;0.25;;;1.60;99.90;;;;;;5140174;27;20122;-83
2023/03/12 05:36:15;;;;;;;1.77;0.47;;;1.60;99.90;;;;;;5140318;27;20038;-83
2023/03/12 05:38:44;;;;;;;0.00;0.00;;;1.60;99.90;;;;;;5140297;27;20051;-83
2023/03/12 05:41:21;;;;;;;0.00;0.00;;;1.60;99.90;;;;;;5123204;27;20080;-83
2023/03/12 05:43:47;;;;;;;0.20;0.20;;;1.60;99.90;;;;;;5140268;27;20390;-83
2023/03/12 05:46:13;;;;;;;0.10;0.10;;;1.60;99.90;;;;;;5140070;27;20047;-83
2023/03/12 05:48:39;;;;;;;2.83;0.30;;;1.60;99.90;;;;;;5140203;27;20047;-83
2023/03/12 05:51:05;;;;;;;1.65;0.38;;;1.60;99.90;;;;;;5122851;27;20130;-83
2023/03/12 05:53:30;;;;;;;0.43;0.43;;;1.60;99.90;;;;;;5139312;27;20493;-83
2023/03/12 05:56:02;;;;;;;1.45;0.35;;;1.60;99.90;;;;;;5139706;27;20045;-83
2023/03/12 05:58:28;;;;;;;0.00;0.00;;;1.60;99.90;;;;;;5139567;27;20101;-83
2023/03/12 06:00:54;;;;;;;3.72;0.95;;;1.60;99.90;;;;;;5139877;27;20164;-83
2023/03/12 06:03:20;;;;;;;0.00;0.00;;;1.60;99.90;;;;;;5122862;27;20498;-83
2023/03/12 06:05:46;;;;;;;1.33;0.43;;;1.60;99.90;;;;;;5105515;27;20047;-83
2023/03/12 06:08:13;;;;;;;0.00;0.00;;;1.60;99.90;;;;;;5122636;27;20047;-83
2023/03/12 06:10:38;;;;;;;0.32;0.10;;;1.90;99.90;;;;;;5122326;27;20035;-83
2023/03/12 06:13:05;;;;;;;0.73;0.73;;;1.60;99.90;;;;;;5139408;27;20045;-83
2023/03/12 06:15:30;;;;;;;0.17;0.00;;;1.60;99.90;;;;;;5139489;27;20049;-83
2023/03/12 06:17:56;;;;;;;0.00;0.00;;;1.60;99.90;;;;;;5122258;27;20035;-83
2023/03/12 06:20:22;;;;;;;1.08;0.95;;;1.60;99.90;;;;;;5122693;27;20057;-83
2023/03/12 06:22:48;;;;;;;0.47;0.47;;;1.70;99.90;;;;;;5122189;27;20069;-83
2023/03/12 06:25:14;;;;;;;0.00;0.00;;;1.70;99.90;;;;;;5104804;27;20051;-83
2023/03/12 06:27:40;;;;;;;0.40;0.30;;;1.70;99.90;;;;;;5139223;27;20472;-83
2023/03/12 06:30:07;;;;;;;0.32;0.20;;;1.80;99.90;;;;;;5104263;27;20042;-83
2023/03/12 06:32:33;;;;;;;0.00;0.00;;;1.80;99.90;;;;;;5139096;27;20505;-83
2023/03/12 06:35:03;;;;;;;0.00;0.00;;;1.90;99.90;;;;;;5138776;27;20092;-83
2023/03/12 06:37:29;;;;;;;0.00;0.00;;;1.80;99.90;;;;;;5123269;27;20042;-83
2023/03/12 06:39:55;;;;;;;0.00;0.00;;;1.80;99.90;;;;;;5121884;27;20493;-83
2023/03/12 06:42:21;;;;;;;1.65;1.00;;;1.90;99.90;;;;;;5121754;27;20046;-82
2023/03/12 06:44:48;;;;;;;0.05;0.00;;;1.90;99.90;;;;;;5121794;27;20390;-83
2023/03/12 06:47:13;;;;;;;0.10;0.10;;;1.90;99.90;;;;;;5117973;27;20074;-83
2023/03/12 06:49:39;;;;;;;0.03;0.03;;;1.90;99.90;;;;;;5084510;27;20123;-82
2023/03/12 06:52:05;;;;;;;0.00;0.00;;;2.00;99.90;;;;;;5118247;27;20046;-83
2023/03/12 06:54:31;;;;;;;0.05;0.05;;;2.00;99.90;;;;;;5117524;27;20372;-83
2023/03/12 06:56:58;;;;;;;7.93;1.13;;;2.00;99.90;;;;;;5101457;27;20051;-83
2023/03/12 06:59:24;;;;;;;0.17;0.10;;;2.10;99.90;;;;;;5117679;27;20062;-83
2023/03/12 07:01:50;;;;;;;0.25;0.25;;;2.10;99.90;;;;;;5118044;27;20046;-83
2023/03/12 07:04:16;;;;;;;0.10;0.10;;;2.10;99.90;;;;;;5101263;27;20047;-82
2023/03/12 07:06:42;;;;;;;0.10;0.10;;;2.10;99.90;;;;;;5118358;27;20043;-82
2023/03/12 07:09:08;;;;;;;0.00;0.00;;;2.20;99.90;;;;;;5117871;27;20050;-83
2023/03/12 07:11:34;;;;;;;0.00;0.00;;;2.20;99.90;;;;;;5117804;27;20047;-83
2023/03/12 07:14:00;;;;;;;1.10;0.70;;;2.30;99.90;;;;;;5100565;27;20046;-83
2023/03/12 07:16:26;;;;;;;0.00;0.00;;;2.30;99.90;;;;;;5100752;27;20047;-84
2023/03/12 07:18:52;;;;;;;0.00;0.00;;;2.30;99.90;;;;;;5100871;27;20043;-83
2023/03/12 07:21:24;;;;;;;0.00;0.00;;;2.30;99.90;;;;;;5100406;27;20410;-83
2023/03/12 07:23:50;;;;;;;3.53;0.20;;;2.30;99.90;;;;;;5084218;27;20039;-83
2023/03/12 07:26:16;;;;;;;0.20;0.20;;;2.40;99.90;;;;;;5117404;27;20483;-83
2023/03/12 07:28:42;;;;;;;0.32;0.30;;;2.30;99.90;;;;;;5117949;27;20090;-84
2023/03/12 07:31:08;;;;;;;1.85;0.43;;;2.40;99.90;;;;;;5100703;27;20111;-84
2023/03/12 07:33:34;;;;;;;0.00;0.00;;;2.40;99.90;;;;;;5117236;27;20047;-85
2023/03/12 07:35:59;;;;;;;0.00;0.00;;;2.40;99.90;;;;;;5100206;27;20045;-87
2023/03/12 07:38:25;;;;;;;0.32;0.32;;;2.40;99.90;;;;;;5117044;27;20038;-83
2023/03/12 07:40:53;;;;;;;0.25;0.20;;;2.40;99.90;;;;;;5120756;27;20110;-83
2023/03/12 07:43:19;;;;;;;0.00;0.00;;;2.40;99.90;;;;;;5120815;27;20137;-83
2023/03/12 07:45:44;;;;;;;1.75;0.98;;;2.30;99.90;;;;;;5104334;27;20086;-83
2023/03/12 07:48:10;;;;;;;0.00;0.00;;;2.30;99.90;;;;;;5103689;27;20046;-83
2023/03/12 07:50:37;;;;;;;0.00;0.00;;;2.30;99.90;;;;;;5121390;27;20117;-94
2023/03/12 07:53:03;;;;;;;0.17;0.17;;;2.30;99.90;;;;;;5120673;27;20039;-89
2023/03/12 07:55:30;;;;;;;0.20;0.20;;;2.30;99.90;;;;;;5137357;27;20077;-84
2023/03/12 07:57:57;;;;;;;0.73;0.30;;;2.20;99.90;;;;;;5121094;27;20050;-84
2023/03/12 08:00:24;;;;;;;0.00;0.00;;;2.10;99.90;;;;;;5120781;27;20049;-84
2023/03/12 08:02:50;;;;;;;0.10;0.10;;;2.10;99.90;;;;;;5137253;27;20043;-85
2023/03/12 08:05:16;;;;;;;0.00;0.00;;;2.10;99.90;;;;;;5120055;27;20039;-85
2023/03/12 08:07:41;;;;;;;0.40;0.40;;;2.10;99.90;;;;;;5121070;27;20050;-84
2023/03/12 08:10:09;;;;;;;1.35;0.45;;;2.10;99.90;;;;;;5138242;27;20047;-84
2023/03/12 08:12:36;;;;;;;1.33;1.23;;;2.00;99.90;;;;;;5137254;27;20474;-84
2023/03/12 08:15:03;;;;;;;1.15;0.63;;;2.00;99.90;;;;;;5136860;27;20086;-83
2023/03/12 08:17:29;;;;;;;0.35;0.22;;;2.00;99.90;;;;;;5136943;27;20053;-84
2023/03/12 08:19:55;;;;;;;0.00;0.00;;;2.10;99.90;;;;;;5138082;27;20043;-84
2023/03/12 08:22:21;;;;;;;0.00;0.00;;;2.00;99.90;;;;;;5137266;27;20390;-83
2023/03/12 08:24:46;;;;;;;2.55;1.08;;;2.10;99.90;;;;;;5086044;27;20063;-84
2023/03/12 08:27:12;;;;;;;0.10;0.05;;;2.00;99.90;;;;;;5137219;27;20075;-83
2023/03/12 08:29:39;;;;;;;0.00;0.00;;;2.10;99.90;;;;;;5119751;27;20035;-83
2023/03/12 08:32:05;;;;;;;0.43;0.08;;;2.10;99.90;;;;;;5103042;27;20081;-86
2023/03/12 08:34:32;;;;;;;2.60;0.65;;;2.00;99.90;;;;;;5102507;27;20046;-85
2023/03/12 08:36:58;;;;;;;0.10;0.10;;;2.10;99.90;;;;;;5120034;27;20054;-86
2023/03/12 08:39:23;;;;;;;0.05;0.05;;;2.10;99.90;;;;;;5119729;27;20054;-86
2023/03/12 08:41:50;;;;;;;0.47;0.47;;;2.10;99.90;;;;;;5120620;27;20038;-86
2023/03/12 08:44:16;;;;;;;0.00;0.00;;;2.10;99.90;;;;;;5086573;27;20047;-86
2023/03/12 08:46:41;;;;;;;0.00;0.00;;;2.10;98.50;;;;;;5103156;27;20467;-85
2023/03/12 08:49:07;;;;;;;0.00;0.00;;;2.10;98.50;;;;;;5119683;27;20051;-87
2023/03/12 08:51:33;;;;;;;1.55;0.65;;;2.10;97.90;;;;;;5119669;27;20116;-84
2023/03/12 08:53:58;;;;;;;0.00;0.00;;;2.10;99.90;;;;;;5103999;27;20043;-84
2023/03/12 08:56:24;;;;;;;0.15;0.03;;;2.10;98.20;;;;;;5141082;27;20125;-82
2023/03/12 08:58:50;;;;;;;0.00;0.00;;;2.10;99.50;;;;;;5106473;27;20054;-83
2023/03/12 09:01:16;;;;;;;0.82;0.22;;;2.10;99.00;;;;;;5123992;27;20463;-84
2023/03/12 09:03:41;;;;;;;0.10;0.10;;;2.10;99.80;;;;;;5123879;27;20093;-84
2023/03/12 09:06:15;;;;;;;0.10;0.10;;;2.10;99.50;;;;;;5089802;27;20367;-82
2023/03/12 09:08:42;;;;;;;0.32;0.22;;;2.20;99.90;;;;;;5124327;27;20130;-81
2023/03/12 09:11:08;;;;;;;0.00;0.00;;;2.20;99.90;;;;;;5123858;27;20137;-81
2023/03/12 09:13:34;;;;;;;0.20;0.20;;;2.20;99.90;;;;;;5123391;27;20114;-81
2023/03/12 09:16:01;;;;;;;0.35;0.35;;;2.20;99.90;;;;;;5123322;27;20093;-82
2023/03/12 09:18:28;;;;;;;0.00;0.00;;;2.20;99.90;;;;;;5101810;27;20462;-82
2023/03/12 09:20:55;;;;;;;0.10;0.10;;;2.30;99.90;;;;;;5113514;27;20371;-82
2023/03/12 09:23:21;;;;;;;0.70;0.22;;;2.30;99.90;;;;;;5134272;27;20394;-81
2023/03/12 09:25:47;;;;;;;0.10;0.00;;;2.40;99.90;;;;;;5109005;27;20046;-81
2023/03/12 09:28:13;;;;;;;0.43;0.38;;;2.30;99.90;;;;;;5101663;27;20054;-81
2023/03/12 09:30:38;;;;;;;0.00;0.00;;;2.30;99.90;;;;;;5127449;27;20047;-82
2023/03/12 09:33:04;;;;;;;0.00;0.00;;;2.30;99.90;;;;;;5135943;27;20095;-81
2023/03/12 09:35:30;;;;;;;0.50;0.38;;;2.40;99.90;;;;;;5125673;27;20039;-81
2023/03/12 09:37:57;;;;;;;0.08;0.05;;;2.30;99.90;;;;;;5101523;27;20407;-81
2023/03/12 09:40:28;;;;;;;0.13;0.10;;;2.30;99.90;;;;;;5091312;27;20491;-81
2023/03/12 09:43:01;;;;;;;0.20;0.10;;;2.30;99.90;;;;;;5118866;27;20054;-81
2023/03/12 09:45:51;;;;;;;0.10;0.10;;;2.40;99.90;;;;;;5124305;27;20398;-80
2023/03/12 09:48:36;;;;;;;0.10;0.00;;;2.50;99.90;;;;;;5109522;27;20053;-80
2023/03/12 09:51:34;;;;;;;0.05;0.05;;;2.40;99.90;;;;;;5134472;27;20039;-81
2023/03/12 09:54:03;;;;;;;0.00;0.00;;;2.50;99.90;;;;;;5155503;27;20035;-80
2023/03/12 09:56:29;;;;;;;0.52;0.52;;;2.50;99.90;;;;;;5127694;27;20046;-81
2023/03/12 09:58:55;;;;;;;0.20;0.20;;;2.60;99.90;;;;;;5119029;27;20396;-80
2023/03/12 10:01:42;;;;;;;0.00;0.00;;;2.60;99.90;;;;;;5102277;27;20084;-80
2023/03/12 10:04:22;;;;;;;0.00;0.00;;;2.60;99.90;;;;;;5119905;27;20047;-80
2023/03/12 10:07:08;;;;;;;0.00;0.00;;;2.60;99.90;;;;;;5118339;27;20055;-80
2023/03/12 10:09:57;;;;;;;0.38;0.22;;;2.60;99.90;;;;;;5119039;27;20402;-80
2023/03/12 10:12:22;;;;;;;0.28;0.20;;;2.60;99.90;;;;;;5118969;27;20367;-81
2023/03/12 10:14:56;;;;;;;0.00;0.00;;;2.70;99.90;;;;;;5101704;27;20042;-81
2023/03/12 10:17:41;;;;;;;1.70;0.43;;;2.70;99.90;;;;;;5102047;27;20046;-86
2023/03/12 10:20:21;;;;;;;0.13;0.13;;;2.70;99.90;;;;;;5102155;27;20058;-81
2023/03/12 10:23:15;;;;;;;0.00;0.00;;;2.70;99.90;;;;;;5101900;27;20043;-81
2023/03/12 10:25:44;;;;;;;2.10;0.15;;;2.80;99.90;;;;;;5101155;27;20491;-81
2023/03/12 10:28:34;;;;;;;1.85;0.68;;;2.80;99.90;;;;;;5118763;27;20412;-81
2023/03/12 10:31:05;;;;;;;0.10;0.10;;;2.80;99.90;;;;;;5137132;27;20047;-81
2023/03/12 10:33:47;;;;;;;0.47;0.47;;;2.90;99.90;;;;;;5101875;27;20469;-81
2023/03/12 10:36:23;;;;;;;0.03;0.03;;;3.00;99.90;;;;;;5118899;27;20454;-81
2023/03/12 10:38:49;;;;;;;0.00;0.00;;;3.00;99.90;;;;;;5118538;27;20093;-81
2023/03/12 10:41:19;;;;;;;0.35;0.17;;;3.10;99.90;;;;;;5084716;27;20047;-81
2023/03/12 10:43:44;;;;;;;0.75;0.40;;;3.10;99.90;;;;;;5118424;27;20049;-80
2023/03/12 10:46:13;;;;;;;0.03;0.03;;;3.10;99.90;;;;;;5101401;27;20126;-81
2023/03/12 10:48:39;;;;;;;0.22;0.00;;;3.20;99.90;;;;;;5101434;27;20047;-80
2023/03/12 10:51:11;;;;;;;0.00;0.00;;;3.30;99.90;;;;;;5101223;27;20043;-80
2023/03/12 10:53:43;;;;;;;0.00;0.00;;;3.30;99.90;;;;;;5100657;27;20075;-81
2023/03/12 10:56:13;;;;;;;0.65;0.32;;;3.40;99.90;;;;;;5118187;27;20102;-81
2023/03/12 10:58:44;;;;;;;0.05;0.05;;;3.50;99.90;;;;;;5117495;27;20043;-80
2023/03/12 11:01:29;;;;;;;2.88;0.55;;;3.50;99.90;;;;;;5118111;27;20451;-81
2023/03/12 11:04:29;;;;;;;0.82;0.20;;;3.50;99.90;;;;;;5118265;27;20043;-81
2023/03/12 11:07:13;;;;;;;0.50;0.50;;;3.50;99.90;;;;;;5081007;27;20055;-81
2023/03/12 11:09:39;;;;;;;0.22;0.22;;;3.60;99.90;;;;;;5100946;27;20092;-81
2023/03/12 11:12:29;;;;;;;0.10;0.10;;;3.60;99.90;;;;;;5117920;27;20075;-81
2023/03/12 11:14:56;;;;;;;0.20;0.10;;;3.70;99.90;;;;;;5105453;27;20050;-81
2023/03/12 11:17:28;;;;;;;0.98;0.03;;;3.70;99.90;;;;;;5118068;27;20451;-81
2023/03/12 11:19:54;;;;;;;0.08;0.00;;;3.80;99.90;;;;;;5118069;27;20126;-81
2023/03/12 11:22:32;;;;;;;0.00;0.00;;;3.90;99.90;;;;;;5118093;27;20086;-81
2023/03/12 11:25:05;;;;;;;0.10;0.10;;;3.90;99.90;;;;;;5117246;27;20063;-81
2023/03/12 11:27:51;;;;;;;0.80;0.05;;;4.00;99.90;;;;;;5117584;27;20394;-82
2023/03/12 11:30:23;;;;;;;4.85;0.40;;;4.10;99.90;;;;;;5117735;27;20047;-81
2023/03/12 11:32:49;;;;;;;0.43;0.38;;;4.20;99.90;;;;;;5117597;27;20082;-81
2023/03/12 11:35:19;;;;;;;0.00;0.00;;;4.30;99.90;;;;;;5100589;27;20382;-81
2023/03/12 11:38:25;;;;;;;0.55;0.10;;;4.40;99.90;;;;;;5117395;27;20051;-81
2023/03/12 11:41:12;;;;;;;1.45;0.43;;;4.40;99.90;;;;;;5117406;27;20043;-84
2023/03/12 11:43:56;;;;;;;0.32;0.32;;;4.50;99.90;;;;;;5117296;27;20051;-81
2023/03/12 11:46:43;;;;;;;0.15;0.10;;;4.60;99.90;;;;;;5116927;27;20039;-81
2023/03/12 11:49:20;;;;;;;0.95;0.17;;;4.60;99.90;;;;;;5117172;27;20122;-81
2023/03/12 11:51:54;;;;;;;0.15;0.15;;;4.70;99.90;;;;;;5117486;27;20047;-81
2023/03/12 11:54:38;;;;;;;0.00;0.00;;;4.80;99.90;;;;;;5099518;27;20078;-81
2023/03/12 11:57:37;;;;;;;1.35;0.25;;;5.00;99.90;;;;;;5099749;27;20453;-81
2023/03/12 12:00:17;;;;;;;0.28;0.25;;;5.10;99.90;;;;;;5111223;27;20509;-81
2023/03/12 12:02:56;;;;;;;0.45;0.20;;;5.20;99.90;;;;;;5116931;27;20051;-81
2023/03/12 12:05:26;;;;;;;0.20;0.10;;;5.30;99.90;;;;;;5116950;27;20398;-81
2023/03/12 12:07:58;;;;;;;0.00;0.00;;;5.40;99.90;;;;;;5116957;27;20547;-82
2023/03/12 12:10:37;;;;;;;0.00;0.00;;;5.50;99.90;;;;;;5116851;27;20043;-82
2023/03/12 12:13:05;;;;;;;0.00;0.00;;;5.50;99.90;;;;;;5099815;27;20054;-81
2023/03/12 12:15:37;;;;;;;0.20;0.10;;;5.50;99.90;;;;;;5116455;28;20479;-82
2023/03/12 12:18:27;;;;;;;1.50;0.38;;;5.50;99.90;;;;;;5116675;27;20035;-83
2023/03/12 12:21:11;;;;;;;0.10;0.10;;;5.60;99.90;;;;;;5116418;27;20055;-81
2023/03/12 12:23:56;;;;;;;0.08;0.00;;;5.70;99.90;;;;;;5116266;27;20054;-82
2023/03/12 12:26:36;;;;;;;0.00;0.00;;;5.70;99.90;;;;;;5116492;28;20051;-82
2023/03/12 12:29:44;;;;;;;0.47;0.30;;;5.80;99.90;;;;;;5116088;28;20065;-83
2023/03/12 12:32:26;;;;;;;0.10;0.10;;;5.80;99.90;;;;;;5086316;28;20047;-82
2023/03/12 12:35:31;;;;;;;0.20;0.20;;;5.90;99.90;;;;;;5116435;28;20097;-87
2023/03/12 12:38:36;;;;;;;0.90;0.20;;;5.90;99.90;;;;;;5108980;28;20085;-84
2023/03/12 12:41:24;;;;;;;1.15;0.52;;;6.00;99.90;;;;;;5134946;27;20070;-85
2023/03/12 12:43:58;;;;;;;0.00;0.00;;;6.00;99.90;;;;;;5136976;27;20509;-86
2023/03/12 12:46:40;;;;;;;1.08;0.30;;;6.10;99.90;;;;;;5136779;27;20047;-86
2023/03/12 12:49:21;;;;;;;0.35;0.35;;;6.10;99.90;;;;;;5119798;27;20057;-85
2023/03/12 12:51:56;;;;;;;0.00;0.00;;;6.10;99.90;;;;;;5137637;27;20395;-84
2023/03/12 12:54:30;;;;;;;0.00;0.00;;;6.20;99.90;;;;;;5136364;27;20067;-85
2023/03/12 12:57:11;;;;;;;0.57;0.32;;;6.30;99.90;;;;;;5136763;27;20047;-86
2023/03/12 13:00:06;;;;;;;0.15;0.10;;;6.30;99.90;;;;;;5115791;28;20532;-87
2023/03/12 13:02:35;;;;;;;0.20;0.13;;;6.40;99.90;;;;;;5123723;28;20499;-86
2023/03/12 13:05:01;;;;;;;0.10;0.10;;;6.50;99.90;;;;;;5133292;28;20054;-85
2023/03/12 13:07:28;;;;;;;0.05;0.05;;;6.50;99.90;;;;;;5133242;28;20039;-86
2023/03/12 13:09:56;;;;;;;0.10;0.10;;;6.60;99.90;;;;;;5116161;28;20043;-84
2023/03/12 13:12:46;;;;;;;0.20;0.20;;;6.60;99.90;;;;;;5133253;28;20039;-83